Time;durP1;ratioP1;P1;durP2;ratioP2;P2;SDS_P1;SDS_P2;PMS_P1;PMS_P2;Temp;Humidity;BMP_temperature;BMP_pressure;BME280_temperature;BME280_humidity;BME280_pressure;Samples;Min_cycle;Max_cycle;Signal;HPM_P1;HPM_P2
2023/01/05 02:26:07;;;;;;;1.15;0.40;;;;;;;12.42;73.37;100183.81;1087445;47;20038;-81
2023/01/05 02:27:32;;;;;;;1.20;0.43;;;;;;;12.35;73.75;100190.78;1088014;54;20053;-80
2023/01/05 02:28:53;;;;;;;0.30;0.30;;;;;;;12.48;73.27;100188.53;1088488;46;20034;-80
2023/01/05 02:30:20;;;;;;;0.35;0.20;;;;;;;12.32;73.84;100179.38;1087919;54;20065;-79
2023/01/05 02:31:32;;;;;;;0.88;0.40;;;;;;;12.30;74.31;100175.16;1087564;54;20676;-78
2023/01/05 02:32:44;;;;;;;1.52;0.40;;;;;;;12.46;73.78;100194.06;1087840;54;20032;-81
2023/01/05 02:34:06;;;;;;;0.93;0.50;;;;;;;12.44;73.61;100190.69;1087918;54;20296;-80
2023/01/05 02:35:19;;;;;;;1.38;0.45;;;;;;;12.40;74.07;100192.00;1088212;46;20034;-81
2023/01/05 02:36:27;;;;;;;0.30;0.30;;;;;;;12.46;74.41;100185.19;1087933;54;20034;-82
2023/01/05 02:37:37;;;;;;;0.95;0.40;;;;;;;12.41;75.04;100187.47;1087910;54;20039;-81
2023/01/05 02:38:45;;;;;;;0.65;0.32;;;;;;;12.30;75.74;100178.66;1088402;31;20758;-80
2023/01/05 02:39:58;;;;;;;0.65;0.35;;;;;;;12.37;75.92;100175.41;1087921;54;20030;-79
2023/01/05 02:41:07;;;;;;;0.73;0.40;;;;;;;12.30;76.02;100159.91;1087750;54;20086;-81
2023/01/05 02:42:16;;;;;;;1.08;0.40;;;;;;;12.29;75.68;100171.63;1087784;54;20054;-79
2023/01/05 02:43:19;;;;;;;0.95;0.38;;;;;;;12.31;75.89;100183.03;1091962;39;20728;-80
2023/01/05 02:44:23;;;;;;;1.75;0.43;;;;;;;12.28;76.03;100175.28;1087773;54;20086;-80
2023/01/05 02:45:25;;;;;;;1.02;0.20;;;;;;;12.25;76.20;100164.03;1087729;54;20054;-79
2023/01/05 02:46:32;;;;;;;0.65;0.30;;;;;;;12.29;75.80;100170.78;1087752;54;20018;-78
2023/01/05 02:47:38;;;;;;;1.35;0.40;;;;;;;12.24;75.37;100162.34;1087818;54;20069;-78
2023/01/05 02:48:44;;;;;;;0.88;0.38;;;;;;;12.39;75.15;100154.63;1087651;54;20034;-80
2023/01/05 02:49:45;;;;;;;1.40;0.40;;;;;;;12.46;74.79;100172.63;1087829;54;20057;-79
2023/01/05 02:50:59;;;;;;;0.60;0.30;;;;;;;12.43;74.65;100172.91;1087957;54;20033;-81
2023/01/05 02:52:03;;;;;;;0.50;0.30;;;;;;;12.39;74.51;100173.38;1087865;54;20023;-81
2023/01/05 02:53:18;;;;;;;0.32;0.30;;;;;;;12.37;74.35;100172.72;1087818;54;20038;-80
2023/01/05 02:54:26;;;;;;;0.80;0.30;;;;;;;12.38;74.11;100175.22;1087875;54;20729;-81
2023/01/05 02:55:38;;;;;;;0.43;0.20;;;;;;;12.38;74.01;100174.38;1088107;54;20018;-82
2023/01/05 02:56:48;;;;;;;1.63;0.50;;;;;;;12.43;74.11;100177.44;1088119;54;20038;-82
2023/01/05 02:57:59;;;;;;;0.47;0.28;;;;;;;12.42;73.51;100176.59;1087851;54;20038;-78
2023/01/05 02:59:11;;;;;;;0.82;0.30;;;;;;;12.42;73.67;100168.53;1087794;54;20041;-80
2023/01/05 03:00:17;;;;;;;1.00;0.38;;;;;;;12.49;73.27;100150.00;1088042;54;20049;-83
2023/01/05 03:01:25;;;;;;;0.25;0.20;;;;;;;12.42;73.23;100181.13;1087902;54;20027;-78
2023/01/05 03:02:30;;;;;;;0.88;0.40;;;;;;;12.49;73.17;100187.53;1088134;54;20022;-81
2023/01/05 03:03:38;;;;;;;0.75;0.30;;;;;;;12.53;72.57;100174.66;1087952;54;20034;-81
2023/01/05 03:04:46;;;;;;;0.88;0.40;;;;;;;12.50;72.54;100189.25;1087995;54;20039;-83
2023/01/05 03:05:56;;;;;;;0.70;0.40;;;;;;;12.60;72.14;100181.97;1088246;54;20037;-83
2023/01/05 03:07:01;;;;;;;0.35;0.25;;;;;;;12.54;71.95;100179.91;1088131;54;20042;-80
2023/01/05 03:08:09;;;;;;;0.63;0.38;;;;;;;12.56;71.74;100185.09;1088260;54;20034;-82
2023/01/05 03:09:13;;;;;;;0.40;0.30;;;;;;;12.61;71.23;100183.66;1088186;54;20046;-81
2023/01/05 03:14:25;;;;;;;0.95;0.40;;;;;;;12.53;70.91;100182.72;1087969;54;20095;-81
2023/01/05 03:15:29;;;;;;;2.85;0.50;;;;;;;12.50;71.03;100173.16;1101143;31;20564;-81
2023/01/05 03:16:37;;;;;;;0.68;0.30;;;;;;;12.57;70.95;100184.94;1087876;54;20030;-82
2023/01/05 03:17:45;;;;;;;2.20;0.50;;;;;;;12.55;70.91;100176.22;1087905;54;20096;-80
2023/01/05 03:20:12;;;;;;;1.13;0.30;;;;;;;12.55;71.16;100181.59;1087769;54;20042;-82
2023/01/05 03:21:14;;;;;;;0.68;0.35;;;;;;;12.73;70.89;100184.22;1089923;39;20629;-83
2023/01/05 03:35:49;;;;;;;1.70;0.30;;;;;;;12.37;72.79;100183.44;1087974;54;20058;-81
2023/01/05 03:36:57;;;;;;;0.75;0.38;;;;;;;12.40;72.68;100192.00;1088158;39;20712;-82
2023/01/05 03:38:05;;;;;;;1.17;0.38;;;;;;;12.37;72.52;100175.41;1088054;54;20031;-81
2023/01/05 03:39:09;;;;;;;1.17;0.30;;;;;;;12.45;72.20;100180.81;1087972;54;20053;-81
2023/01/05 03:40:21;;;;;;;1.27;0.43;;;;;;;12.39;72.32;100182.28;1087852;54;20777;-83
2023/01/05 03:41:26;;;;;;;1.45;0.30;;;;;;;12.36;72.75;100179.06;1087941;54;20065;-80
2023/01/05 03:42:29;;;;;;;0.98;0.40;;;;;;;12.39;72.63;100182.28;1087917;54;20030;-82
2023/01/05 03:43:36;;;;;;;1.10;0.45;;;;;;;12.47;72.39;100181.50;1087993;54;20035;-80
2023/01/05 03:44:39;;;;;;;1.65;0.40;;;;;;;12.38;72.52;100179.72;1088253;54;20058;-81
2023/01/05 03:45:46;;;;;;;1.30;0.40;;;;;;;12.38;72.58;100177.06;1088430;54;20042;-80
2023/01/05 03:46:48;;;;;;;0.20;0.20;;;;;;;12.39;72.60;100186.78;1088205;54;20053;-79
2023/01/05 03:47:54;;;;;;;0.80;0.40;;;;;;;12.42;72.34;100168.53;1088148;54;20042;-80
2023/01/05 03:49:01;;;;;;;1.50;0.57;;;;;;;12.44;72.28;100173.78;1088118;54;20058;-80
2023/01/05 03:50:03;;;;;;;2.25;0.40;;;;;;;12.38;72.37;100175.22;1088184;54;20018;-80
2023/01/05 03:51:08;;;;;;;0.98;0.35;;;;;;;12.29;72.62;100168.94;1088163;54;20022;-79
2023/01/05 03:52:10;;;;;;;1.52;0.40;;;;;;;12.32;72.71;100187.41;1088157;54;20042;-80
2023/01/05 03:53:14;;;;;;;1.13;0.40;;;;;;;12.33;72.39;100178.38;1088164;54;20030;-79
2023/01/05 03:54:15;;;;;;;1.30;0.40;;;;;;;12.52;72.24;100176.53;1088148;54;20039;-80
2023/01/05 03:55:19;;;;;;;1.58;0.40;;;;;;;12.50;71.80;100178.50;1088186;54;20074;-79
2023/01/05 03:56:21;;;;;;;1.13;0.40;;;;;;;12.41;72.28;100184.78;1087965;54;20038;-82
2023/01/05 03:57:26;;;;;;;0.77;0.38;;;;;;;12.46;72.37;100169.09;1088172;54;20686;-79
2023/01/05 03:58:27;;;;;;;1.10;0.45;;;;;;;12.43;72.03;100170.22;1088160;54;20057;-80
2023/01/05 03:59:33;;;;;;;3.08;0.40;;;;;;;12.49;71.92;100176.81;1089087;46;20034;-79
2023/01/05 04:00:35;;;;;;;1.35;0.43;;;;;;;12.45;72.58;100183.50;1088202;54;20030;-79
2023/01/05 04:01:39;;;;;;;1.52;0.40;;;;;;;12.39;72.54;100187.63;1088209;54;20038;-81
2023/01/05 04:02:40;;;;;;;1.40;0.40;;;;;;;12.44;72.50;100187.19;1088091;54;20058;-80
2023/01/05 04:03:45;;;;;;;1.33;0.40;;;;;;;12.47;72.24;100184.16;1088153;54;20014;-80
2023/01/05 04:04:49;;;;;;;1.00;0.40;;;;;;;12.41;72.64;100185.66;1088110;54;20053;-82
2023/01/05 04:05:55;;;;;;;1.08;0.50;;;;;;;12.40;72.72;100183.09;1088332;54;20037;-81
2023/01/05 04:06:56;;;;;;;1.58;0.40;;;;;;;12.38;72.98;100185.09;1088160;54;20034;-80
2023/01/05 04:08:01;;;;;;;0.63;0.30;;;;;;;12.33;73.21;100199.81;1088161;54;20034;-80
2023/01/05 04:09:02;;;;;;;0.63;0.30;;;;;;;12.41;73.09;100187.47;1088315;54;20014;-84
2023/01/05 04:10:07;;;;;;;0.75;0.30;;;;;;;12.40;73.36;100188.47;1087962;54;20037;-78
2023/01/05 04:11:11;;;;;;;0.98;0.30;;;;;;;12.38;73.31;100194.00;1088052;54;20034;-81
2023/01/05 04:12:21;;;;;;;1.48;0.30;;;;;;;12.31;73.58;100188.41;1088751;31;20792;-80
2023/01/05 04:13:23;;;;;;;1.25;0.43;;;;;;;12.40;73.25;100186.66;1088409;46;20061;-80
2023/01/05 04:14:29;;;;;;;2.20;0.40;;;;;;;12.33;73.32;100193.59;1088215;54;20035;-81
2023/01/05 04:15:31;;;;;;;1.30;0.40;;;;;;;12.42;73.29;100181.94;1088223;54;20031;-82
2023/01/05 04:16:35;;;;;;;0.70;0.30;;;;;;;12.37;73.39;100178.91;1088008;54;20026;-81
2023/01/05 04:17:37;;;;;;;1.70;0.30;;;;;;;12.37;73.57;100191.47;1088087;54;20062;-81
2023/01/05 04:18:42;;;;;;;1.92;0.40;;;;;;;12.37;73.89;100202.19;1088121;54;20042;-80
2023/01/05 04:19:43;;;;;;;1.00;0.30;;;;;;;12.48;73.27;100199.25;1088258;54;20018;-80
2023/01/05 04:20:50;;;;;;;1.10;0.38;;;;;;;12.55;72.89;100189.63;1088201;54;20050;-79
2023/01/05 04:21:52;;;;;;;1.00;0.40;;;;;;;12.37;73.80;100203.03;1088193;54;20435;-81
2023/01/05 04:22:56;;;;;;;0.73;0.40;;;;;;;12.36;73.59;100200.50;1088089;54;20070;-81
2023/01/05 04:23:58;;;;;;;0.47;0.30;;;;;;;12.35;73.58;100196.13;1087983;54;20034;-81
2023/01/05 04:25:02;;;;;;;0.60;0.30;;;;;;;12.28;74.25;100201.25;1088261;54;20031;-83
2023/01/05 04:26:04;;;;;;;1.45;0.70;;;;;;;12.39;73.73;100198.38;1088116;54;20042;-83
2023/01/05 04:27:08;;;;;;;1.30;0.43;;;;;;;12.26;74.36;100197.88;1089090;46;20035;-80
2023/01/05 04:28:10;;;;;;;3.05;0.50;;;;;;;12.33;74.36;100207.84;1092590;39;20630;-81
2023/01/05 04:29:14;;;;;;;0.80;0.40;;;;;;;12.37;74.09;100200.34;1088234;54;20031;-82
2023/01/05 04:30:16;;;;;;;0.88;0.40;;;;;;;12.30;74.16;100201.97;1088071;54;20053;-81
2023/01/05 04:31:20;;;;;;;0.88;0.43;;;;;;;12.20;74.79;100199.34;1088093;54;20038;-81
2023/01/05 04:32:22;;;;;;;1.23;0.40;;;;;;;12.28;74.61;100196.72;1088117;54;20035;-79
2023/01/05 04:33:26;;;;;;;0.98;0.30;;;;;;;12.29;74.46;100197.59;1088117;54;20030;-82
2023/01/05 04:34:32;;;;;;;1.42;0.47;;;;;;;12.27;74.67;100200.44;1088136;54;20027;-81
2023/01/05 04:35:36;;;;;;;0.90;0.30;;;;;;;12.24;74.54;100195.38;1088135;54;20669;-81
2023/01/05 04:36:41;;;;;;;0.57;0.32;;;;;;;12.25;74.46;100191.69;1088123;54;20046;-80
2023/01/05 04:37:45;;;;;;;1.75;0.30;;;;;;;12.31;74.68;100191.06;1088209;54;20038;-82
2023/01/05 04:38:55;;;;;;;1.27;0.35;;;;;;;12.20;74.84;100193.97;1088152;54;20042;-83
2023/01/05 04:39:56;;;;;;;1.23;0.30;;;;;;;12.18;75.38;100195.97;1088132;54;20019;-80
2023/01/05 04:41:01;;;;;;;0.95;0.40;;;;;;;12.27;75.20;100189.72;1087999;54;20041;-80
2023/01/05 04:42:03;;;;;;;0.63;0.30;;;;;;;12.31;74.78;100193.75;1088057;54;20030;-81
2023/01/05 04:43:08;;;;;;;0.90;0.30;;;;;;;12.13;75.78;100192.91;1088563;46;20041;-80
2023/01/05 04:44:10;;;;;;;0.52;0.30;;;;;;;12.21;75.84;100190.31;1087728;54;20061;-81
2023/01/05 04:45:15;;;;;;;1.38;0.40;;;;;;;12.29;75.49;100208.31;1087973;54;20045;-80
2023/01/05 04:46:17;;;;;;;1.00;0.40;;;;;;;12.24;75.66;100208.78;1088096;46;20039;-79
2023/01/05 04:47:21;;;;;;;0.60;0.30;;;;;;;12.09;76.12;100208.44;1088120;54;20132;-81
2023/01/05 04:48:23;;;;;;;0.50;0.28;;;;;;;12.17;76.30;100207.69;1088104;54;20018;-81
2023/01/05 04:49:28;;;;;;;0.80;0.30;;;;;;;12.10;76.21;100206.59;1088081;54;20014;-82
2023/01/05 04:50:32;;;;;;;3.58;0.50;;;;;;;12.12;76.50;100209.97;1088163;54;20658;-81
2023/01/05 04:51:33;;;;;;;1.83;0.30;;;;;;;12.14;76.20;100206.13;1088055;54;20035;-81
2023/01/05 04:52:40;;;;;;;0.90;0.28;;;;;;;12.04;76.41;100216.09;1088822;39;20320;-81
2023/01/05 04:53:42;;;;;;;0.73;0.40;;;;;;;12.02;76.80;100218.91;1088132;54;20053;-81
2023/01/05 04:54:46;;;;;;;0.60;0.30;;;;;;;12.19;76.18;100215.56;1087811;54;20034;-81
2023/01/05 04:55:47;;;;;;;0.98;0.40;;;;;;;12.23;75.78;100220.47;1088081;54;21014;-81
2023/01/05 04:56:52;;;;;;;1.48;0.40;;;;;;;12.15;75.96;100228.44;1093119;31;20721;-79
2023/01/05 04:57:54;;;;;;;0.30;0.20;;;;;;;12.30;75.66;100224.22;1088073;54;20030;-81
2023/01/05 04:58:58;;;;;;;0.77;0.30;;;;;;;12.19;75.90;100229.81;1088161;54;20717;-82
2023/01/05 04:59:59;;;;;;;0.43;0.30;;;;;;;12.19;75.84;100237.00;1088082;54;20039;-80
2023/01/05 05:01:03;;;;;;;0.68;0.30;;;;;;;12.09;76.48;100234.41;1088107;54;20042;-81
2023/01/05 05:02:05;;;;;;;1.33;0.30;;;;;;;12.16;76.06;100235.50;1087924;54;20035;-80
2023/01/05 05:03:09;;;;;;;1.60;0.40;;;;;;;12.09;76.38;100237.09;1088013;54;20061;-80
2023/01/05 05:04:11;;;;;;;1.27;0.40;;;;;;;12.05;76.58;100224.97;1088145;54;20034;-81
2023/01/05 05:05:15;;;;;;;1.45;0.40;;;;;;;12.04;76.49;100228.63;1088003;54;20034;-80
2023/01/05 05:06:16;;;;;;;1.98;0.45;;;;;;;12.10;76.13;100223.53;1088127;54;20046;-80
2023/01/05 05:07:21;;;;;;;0.60;0.30;;;;;;;12.08;76.41;100232.72;1089966;46;20080;-79
2023/01/05 05:08:25;;;;;;;0.85;0.32;;;;;;;12.22;76.11;100242.91;1088036;54;20030;-80
2023/01/05 05:09:29;;;;;;;1.83;0.50;;;;;;;12.29;75.31;100237.81;1088145;54;20030;-79
2023/01/05 05:10:30;;;;;;;1.13;0.40;;;;;;;12.07;76.23;100245.25;1091739;39;20467;-79
2023/01/05 05:11:35;;;;;;;1.60;0.50;;;;;;;12.13;76.14;100243.81;1088168;54;20042;-81
2023/01/05 05:12:36;;;;;;;1.73;0.45;;;;;;;12.01;76.45;100246.69;1089214;46;20037;-80
2023/01/05 05:13:40;;;;;;;0.98;0.40;;;;;;;12.02;76.56;100237.66;1090163;39;20656;-81
2023/01/05 05:14:42;;;;;;;0.70;0.30;;;;;;;12.15;76.29;100245.34;1088108;54;20019;-81
2023/01/05 05:15:49;;;;;;;0.52;0.30;;;;;;;12.29;75.73;100237.81;1088021;54;20025;-81
2023/01/05 05:16:50;;;;;;;1.67;0.40;;;;;;;12.16;75.85;100249.72;1088104;54;20049;-81
2023/01/05 05:17:58;;;;;;;0.98;0.40;;;;;;;12.03;76.44;100257.28;1087956;54;20034;-83
2023/01/05 05:19:02;;;;;;;1.15;0.55;;;;;;;12.11;76.49;100254.69;1087977;54;20049;-78
2023/01/05 05:20:14;;;;;;;1.98;0.80;;;;;;;12.14;75.91;100262.41;1088020;54;20090;-81
2023/01/05 05:21:21;;;;;;;1.38;0.50;;;;;;;12.10;76.35;100260.19;1088030;54;20069;-80
2023/01/05 05:22:31;;;;;;;1.70;0.40;;;;;;;12.00;76.37;100269.13;1087908;54;20042;-79
2023/01/05 05:23:41;;;;;;;0.60;0.32;;;;;;;12.17;75.88;100263.97;1089339;46;20065;-81
2023/01/05 05:24:51;;;;;;;1.98;0.50;;;;;;;12.24;75.62;100251.66;1094441;39;20653;-80
2023/01/05 05:25:59;;;;;;;1.23;0.40;;;;;;;12.11;75.97;100273.47;1090149;39;20519;-80
2023/01/05 05:27:12;;;;;;;1.98;0.60;;;;;;;12.26;75.45;100267.56;1088008;54;20031;-79
2023/01/05 05:28:18;;;;;;;1.67;0.50;;;;;;;12.15;75.83;100274.81;1087915;54;20034;-80
2023/01/05 05:29:28;;;;;;;1.63;0.50;;;;;;;12.25;75.26;100261.38;1088768;46;20030;-81
2023/01/05 05:30:41;;;;;;;1.80;0.43;;;;;;;12.08;75.95;100280.94;1088176;54;20087;-81
2023/01/05 05:31:54;;;;;;;3.60;0.88;;;;;;;12.02;76.45;100282.38;1087602;54;20038;-80
2023/01/05 05:33:09;;;;;;;1.30;0.43;;;;;;;11.97;76.47;100290.88;1087931;54;20018;-81
2023/01/05 05:34:17;;;;;;;1.17;0.50;;;;;;;12.09;76.20;100282.66;1087752;54;20030;-80
2023/01/05 05:35:27;;;;;;;1.65;0.50;;;;;;;12.27;75.39;100278.16;1087769;54;20848;-83
2023/01/05 05:36:35;;;;;;;1.03;0.40;;;;;;;12.14;75.99;100285.72;1087881;54;20036;-81
2023/01/05 05:37:47;;;;;;;1.10;0.40;;;;;;;12.02;76.44;100288.56;1088231;54;20069;-81
2023/01/05 05:39:03;;;;;;;2.80;0.60;;;;;;;12.13;75.93;100290.22;1088027;54;20094;-81
2023/01/05 05:40:10;;;;;;;1.40;0.52;;;;;;;12.07;75.91;100289.97;1088913;39;20292;-80
2023/01/05 05:41:22;;;;;;;1.45;0.50;;;;;;;12.01;76.20;100297.59;1088016;54;20049;-79
2023/01/05 05:42:30;;;;;;;3.00;0.60;;;;;;;11.91;76.28;100301.28;1087921;54;20042;-80
2023/01/05 05:43:44;;;;;;;3.60;0.60;;;;;;;12.06;76.09;100293.66;1087623;54;20022;-80
2023/01/05 05:44:58;;;;;;;2.78;0.60;;;;;;;12.02;76.02;100310.00;1087683;54;20079;-80
2023/01/05 05:46:07;;;;;;;3.20;0.70;;;;;;;12.17;75.46;100307.69;1088058;54;20037;-81
2023/01/05 05:47:18;;;;;;;1.43;0.40;;;;;;;12.22;75.17;100307.25;1087636;54;20019;-78
2023/01/05 05:48:22;;;;;;;2.45;0.50;;;;;;;12.05;75.56;100305.34;1085291;54;20270;-78
2023/01/05 05:49:24;;;;;;;4.13;0.73;;;;;;;12.19;75.15;100315.56;1087477;39;20479;-80
2023/01/05 05:50:29;;;;;;;4.30;1.13;;;;;;;12.32;74.62;100315.25;1087257;54;20053;-79
2023/01/05 05:51:31;;;;;;;2.10;0.60;;;;;;;12.33;74.77;100316.91;1089551;39;20677;-81
2023/01/05 05:52:36;;;;;;;5.07;1.20;;;;;;;12.13;75.19;100318.84;1088135;54;20030;-83
2023/01/05 05:53:37;;;;;;;2.35;0.60;;;;;;;12.17;75.42;100314.91;1088192;54;20030;-82
2023/01/05 05:54:44;;;;;;;2.47;0.70;;;;;;;12.06;75.57;100321.28;1088043;54;20118;-81
2023/01/05 05:55:47;;;;;;;4.55;1.00;;;;;;;12.24;74.83;100318.66;1089592;39;20610;-81
2023/01/05 05:56:51;;;;;;;2.65;0.90;;;;;;;12.19;75.16;100322.78;1088008;54;20391;-81
2023/01/05 05:57:53;;;;;;;3.10;0.73;;;;;;;12.04;75.46;100319.75;1088020;54;20049;-81
2023/01/05 05:58:58;;;;;;;4.53;0.80;;;;;;;12.05;75.77;100319.59;1087909;54;20094;-81
2023/01/05 05:59:59;;;;;;;3.03;0.70;;;;;;;12.04;75.90;100319.75;1087994;54;20057;-81
2023/01/05 06:01:07;;;;;;;6.25;1.10;;;;;;;12.16;75.37;100326.59;1087988;54;20035;-81
2023/01/05 06:02:08;;;;;;;2.42;0.70;;;;;;;12.16;75.27;100324.75;1088074;54;20054;-82
2023/01/05 06:03:14;;;;;;;1.83;0.60;;;;;;;12.11;75.54;100326.19;1087954;54;20030;-82
2023/01/05 06:04:17;;;;;;;3.22;0.68;;;;;;;11.98;75.69;100338.09;1088056;54;20042;-80
2023/01/05 06:05:32;;;;;;;3.25;0.70;;;;;;;12.11;75.22;100336.91;1090975;39;20697;-81
2023/01/05 06:06:33;;;;;;;3.55;0.90;;;;;;;12.01;75.45;100339.63;1091071;39;20590;-81
2023/01/05 06:07:44;;;;;;;4.38;0.90;;;;;;;12.17;74.93;100341.69;1088069;54;20098;-83
2023/01/05 06:08:46;;;;;;;2.75;0.77;;;;;;;12.17;74.91;100342.53;1088211;54;20034;-81
2023/01/05 06:09:54;;;;;;;2.05;0.90;;;;;;;12.09;74.97;100347.78;1089266;46;20042;-82
2023/01/05 06:10:56;;;;;;;4.65;1.00;;;;;;;12.17;75.32;100344.38;1088391;54;20752;-81
2023/01/05 06:12:01;;;;;;;2.97;0.75;;;;;;;12.07;75.38;100346.25;1088247;54;20018;-82
2023/01/05 06:13:03;;;;;;;3.15;0.88;;;;;;;11.95;75.52;100342.88;1088240;54;20725;-82
2023/01/05 06:14:10;;;;;;;3.75;1.10;;;;;;;11.96;75.38;100341.88;1088028;54;20038;-80
2023/01/05 06:15:11;;;;;;;5.20;0.98;;;;;;;11.85;75.56;100350.94;1087903;54;20034;-79
2023/01/05 06:16:17;;;;;;;4.30;0.80;;;;;;;11.69;76.24;100354.22;1087907;54;20030;-81
2023/01/05 06:17:18;;;;;;;4.32;1.30;;;;;;;11.77;76.56;100353.50;1087903;54;20759;-81
2023/01/05 06:18:24;;;;;;;2.22;0.77;;;;;;;11.64;76.50;100356.50;1087946;54;20018;-81
2023/01/05 06:19:26;;;;;;;3.50;0.98;;;;;;;11.66;76.82;100352.69;1089349;39;20660;-82
2023/01/05 06:20:38;;;;;;;4.03;0.70;;;;;;;11.67;76.54;100364.22;1088103;54;20083;-82
2023/01/05 06:21:39;;;;;;;5.28;1.10;;;;;;;11.73;76.61;100368.16;1088191;54;20042;-80
2023/01/05 06:22:44;;;;;;;3.53;0.80;;;;;;;11.84;76.01;100371.53;1087970;54;20037;-81
2023/01/05 06:23:45;;;;;;;3.55;1.00;;;;;;;11.63;76.17;100369.03;1087973;54;20034;-79
2023/01/05 06:24:54;;;;;;;3.38;0.70;;;;;;;11.76;75.98;100373.25;1087878;54;20042;-80
2023/01/05 06:25:58;;;;;;;5.50;0.90;;;;;;;11.65;76.53;100375.09;1087975;54;20034;-81
2023/01/05 06:27:00;;;;;;;4.05;0.90;;;;;;;11.84;76.06;100381.38;1088223;54;20038;-81
2023/01/05 06:28:05;;;;;;;4.55;1.15;;;;;;;11.68;76.05;100382.84;1087359;54;20056;-79
2023/01/05 06:29:09;;;;;;;2.83;0.80;;;;;;;11.75;76.14;100377.75;1087968;54;20034;-81
2023/01/05 06:30:12;;;;;;;4.45;0.98;;;;;;;11.71;76.20;100381.72;1088002;54;20764;-82
2023/01/05 06:31:16;;;;;;;2.63;0.75;;;;;;;11.68;76.09;100377.50;1088157;54;20034;-80
2023/01/05 06:32:18;;;;;;;2.97;0.85;;;;;;;11.66;75.98;100373.28;1088066;54;20034;-79
2023/01/05 06:33:22;;;;;;;5.00;0.90;;;;;;;11.79;75.73;100372.97;1087960;54;20042;-81
2023/01/05 06:34:23;;;;;;;3.47;0.90;;;;;;;11.75;75.56;100382.25;1092996;31;20748;-79
2023/01/05 06:35:27;;;;;;;3.22;1.02;;;;;;;11.72;75.28;100383.41;1087732;54;20038;-79
2023/01/05 06:36:32;;;;;;;4.15;1.00;;;;;;;11.68;75.33;100381.97;1087987;46;20038;-80
2023/01/05 06:37:33;;;;;;;3.58;0.90;;;;;;;11.54;75.69;100385.94;1087905;54;20037;-80
2023/01/05 06:38:38;;;;;;;7.50;1.50;;;;;;;11.49;73.94;100385.53;1087826;54;20035;-80
2023/01/05 06:39:39;;;;;;;5.70;1.27;;;;;;;11.54;73.96;100380.59;1087874;54;20057;-81
2023/01/05 06:40:48;;;;;;;7.82;1.00;;;;;;;11.50;73.93;100379.22;1087843;54;20034;-79
2023/01/05 06:41:49;;;;;;;5.80;1.48;;;;;;;11.51;74.07;100375.56;1087823;54;20026;-78
2023/01/05 06:42:53;;;;;;;6.03;1.23;;;;;;;11.67;73.78;100381.16;1090645;39;20724;-80
2023/01/05 06:43:57;;;;;;;5.80;1.63;;;;;;;11.62;73.50;100374.53;1087835;54;20033;-79
2023/01/05 06:44:59;;;;;;;5.82;1.30;;;;;;;11.71;72.85;100369.16;1087790;54;20035;-80
2023/01/05 06:46:03;;;;;;;6.13;1.20;;;;;;;11.72;72.15;100383.41;1087758;54;20042;-79
2023/01/05 06:47:05;;;;;;;4.75;1.52;;;;;;;11.65;71.91;100376.94;1087785;54;20039;-79
2023/01/05 06:48:09;;;;;;;7.65;2.05;;;;;;;11.60;72.47;100382.72;1087918;54;20079;-80
2023/01/05 06:49:11;;;;;;;6.65;1.35;;;;;;;11.70;71.92;100385.38;1087688;54;20039;-81
2023/01/05 06:50:15;;;;;;;6.22;1.50;;;;;;;11.64;72.06;100369.88;1087718;54;20058;-79
2023/01/05 06:51:18;;;;;;;8.10;1.65;;;;;;;11.58;71.83;100368.63;1087830;54;20041;-79
2023/01/05 06:52:22;;;;;;;7.38;1.75;;;;;;;11.62;71.75;100356.63;1087838;54;20034;-79
2023/01/05 06:53:25;;;;;;;8.38;1.77;;;;;;;11.70;70.73;100359.44;1087943;47;20022;-79
2023/01/05 06:54:30;;;;;;;8.70;1.38;;;;;;;11.71;70.27;100354.94;1087838;54;20027;-81
2023/01/05 06:55:34;;;;;;;5.82;1.35;;;;;;;11.57;70.17;100356.22;1087832;54;20057;-79
2023/01/05 06:56:40;;;;;;;9.90;2.40;;;;;;;11.64;69.90;100360.00;1087723;54;20038;-79
2023/01/05 06:57:42;;;;;;;8.23;1.70;;;;;;;11.64;70.01;100359.19;1087666;54;20030;-81
2023/01/05 06:58:46;;;;;;;5.95;1.40;;;;;;;11.63;69.24;100357.47;1087726;54;20019;-79
2023/01/05 06:59:47;;;;;;;6.47;1.67;;;;;;;11.73;69.05;100360.13;1089340;39;20559;-79
2023/01/05 07:00:52;;;;;;;10.48;2.92;;;;;;;11.72;68.91;100356.63;1087739;54;20034;-78
2023/01/05 07:01:53;;;;;;;7.72;1.70;;;;;;;11.79;68.62;100367.59;1087966;54;20042;-79
2023/01/05 07:02:58;;;;;;;9.32;2.08;;;;;;;11.76;68.15;100357.16;1087843;54;20034;-78
2023/01/05 07:03:59;;;;;;;5.88;2.10;;;;;;;11.77;68.14;100361.53;1087780;54;20082;-81
2023/01/05 07:05:04;;;;;;;9.75;2.00;;;;;;;11.74;67.78;100361.81;1087698;54;20030;-81
2023/01/05 07:06:06;;;;;;;7.50;1.60;;;;;;;11.74;67.70;100356.47;1087736;54;20043;-79
2023/01/05 07:07:13;;;;;;;7.85;1.92;;;;;;;11.63;67.45;100362.84;1087980;54;20018;-82
2023/01/05 07:08:17;;;;;;;7.78;1.88;;;;;;;11.76;67.29;100347.28;1087815;54;20042;-79
2023/01/05 07:09:18;;;;;;;8.18;2.08;;;;;;;11.85;66.98;100350.94;1087922;54;20035;-80
2023/01/05 07:10:23;;;;;;;7.95;1.60;;;;;;;11.78;66.80;100341.81;1087921;54;20026;-79
2023/01/05 07:11:25;;;;;;;9.32;2.03;;;;;;;11.73;67.12;100342.25;1088880;31;20697;-81
2023/01/05 07:12:32;;;;;;;11.20;2.10;;;;;;;11.57;67.81;100342.84;1087567;54;20042;-79
2023/01/05 07:13:33;;;;;;;7.50;1.77;;;;;;;11.68;67.62;100345.34;1090012;46;20045;-79
2023/01/05 07:14:37;;;;;;;9.45;1.70;;;;;;;11.65;68.14;100336.78;1087673;54;20119;-80
2023/01/05 07:15:39;;;;;;;7.90;1.75;;;;;;;11.83;67.81;100352.91;1087832;54;20038;-82
2023/01/05 07:16:52;;;;;;;5.72;1.30;;;;;;;11.82;67.41;100336.00;1087927;54;20031;-80
2023/01/05 07:17:54;;;;;;;6.88;2.00;;;;;;;11.65;68.42;100342.97;1087834;54;20033;-81
2023/01/05 07:19:02;;;;;;;6.63;1.60;;;;;;;11.68;68.07;100340.00;1087834;54;20082;-81
2023/01/05 07:20:09;;;;;;;10.90;2.10;;;;;;;11.66;68.07;100347.31;1087851;54;20042;-80
2023/01/05 07:21:10;;;;;;;6.78;2.00;;;;;;;11.70;68.09;100348.75;1088408;39;20639;-79
2023/01/05 07:22:14;;;;;;;6.65;1.63;;;;;;;11.77;67.95;100343.63;1087870;54;20041;-79
2023/01/05 07:23:16;;;;;;;5.80;1.70;;;;;;;11.66;67.93;100347.31;1087655;54;20035;-81
2023/01/05 07:24:21;;;;;;;6.85;1.90;;;;;;;11.74;67.83;100348.44;1088657;39;20453;-80
2023/01/05 07:25:30;;;;;;;6.10;1.70;;;;;;;11.72;67.84;100356.63;1087757;54;20038;-80
2023/01/05 07:26:31;;;;;;;5.90;1.75;;;;;;;11.74;67.55;100359.13;1087179;54;20046;-79
2023/01/05 07:27:38;;;;;;;5.07;1.52;;;;;;;11.85;67.62;100361.66;1086987;54;20041;-79
2023/01/05 07:28:40;;;;;;;6.55;1.50;;;;;;;11.94;67.25;100360.78;1086660;54;20062;-79
2023/01/05 07:29:44;;;;;;;6.45;1.90;;;;;;;11.76;67.71;100373.25;1086840;54;20049;-81
2023/01/05 07:30:50;;;;;;;7.70;1.75;;;;;;;11.66;68.29;100370.59;1087647;54;20034;-79
2023/01/05 07:31:54;;;;;;;7.72;1.92;;;;;;;11.74;67.82;100364.50;1087846;54;20026;-80
2023/01/05 07:33:05;;;;;;;8.52;2.13;;;;;;;11.56;68.37;100370.59;1088029;54;20753;-82
2023/01/05 07:34:07;;;;;;;10.80;2.38;;;;;;;11.55;68.85;100371.56;1087807;54;20042;-79
2023/01/05 07:37:22;;;;;;;9.75;1.85;;;;;;;11.60;68.79;100371.16;1087341;54;20038;-80
2023/01/05 07:38:24;;;;;;;8.75;2.05;;;;;;;11.61;69.13;100375.53;1087080;54;20030;-78
2023/01/05 07:41:04;;;;;;;8.13;1.80;;;;;;;11.69;68.74;100379.19;1086786;54;20742;-77
2023/01/05 07:42:42;;;;;;;6.25;1.30;;;;;;;11.71;68.32;100377.19;1085598;54;20043;-79
2023/01/05 07:43:50;;;;;;;5.85;1.77;;;;;;;11.52;68.57;100387.94;1087498;54;20019;-81
2023/01/05 07:44:52;;;;;;;7.57;1.50;;;;;;;11.64;68.62;100386.78;1087452;54;20073;-79
2023/01/05 07:45:59;;;;;;;6.80;1.80;;;;;;;11.57;68.67;100380.31;1087455;54;20037;-80
2023/01/05 07:47:04;;;;;;;9.45;1.80;;;;;;;11.68;68.58;100382.84;1087306;54;20041;-80
2023/01/05 07:48:09;;;;;;;9.18;2.10;;;;;;;11.65;68.58;100384.97;1087963;47;20058;-81
2023/01/05 07:49:10;;;;;;;8.15;1.75;;;;;;;11.83;68.24;100383.25;1087533;47;20087;-81
2023/01/05 07:50:15;;;;;;;6.70;1.42;;;;;;;11.91;67.65;100387.03;1087344;54;20038;-79
2023/01/05 07:51:21;;;;;;;9.35;1.77;;;;;;;11.90;67.72;100390.69;1087067;54;20042;-80
2023/01/05 07:52:25;;;;;;;6.15;1.85;;;;;;;11.94;67.67;100389.41;1091234;39;20263;-79